This is the latest recevied weather packets stored in our database for station/object CW2401. If no packets are shown the sender has not sent any weather packets the latest 10 day(s).
| Time | Temp. | Humidity | Pressure | Rain* | Wind** | Luminosity | Snow |
|---|---|---|---|---|---|---|---|
| 1777134725 | 27.22° C | 52% | 1010 hPa | 0 mm | - | - | - |
| 1777134243 | 27.22° C | 53% | 1010 hPa | 0 mm | - | - | - |
| 1777133879 | 26.67° C | 54% | 1010.1 hPa | 0 mm | - | - | - |
| 1777133755 | 26.67° C | 53% | 1010.1 hPa | 0 mm | - | - | - |
| 1777132790 | 26.67° C | 53% | 1010.3 hPa | 0 mm | - | - | - |
| 1777131704 | 26.11° C | 58% | 1010.5 hPa | 0 mm | - | - | - |
| 1777131583 | 26.11° C | 58% | 1010.5 hPa | 0 mm | - | - | - |
| 1777130861 | 26.11° C | 63% | 1010.5 hPa | 0 mm | - | - | - |
| 1777130498 | 25.56° C | 61% | 1010.5 hPa | 0 mm | - | - | - |
| 1777130133 | 25.56° C | 63% | 1010.5 hPa | 0 mm | - | - | - |
| 1777129769 | 25.56° C | 62% | 1010.5 hPa | 0 mm | - | - | - |
| 1777129526 | 25.56° C | 63% | 1010.5 hPa | 0 mm | - | - | - |
| 1777128797 | 25° C | 66% | 1010.5 hPa | 0 mm | - | - | - |
| 1777128190 | 25° C | 65% | 1010.4 hPa | 0 mm | - | - | - |
| 1777128070 | 25° C | 66% | 1010.5 hPa | 0 mm | - | - | - |
| 1777127950 | 25° C | 67% | 1010.5 hPa | 0 mm | - | - | - |
| 1777126381 | 25° C | 65% | 1010.6 hPa | 0 mm | - | - | - |
| 1777125052 | 21.67° C | 74% | 1010.5 hPa | 0 mm | - | - | - |
| 1777124564 | 20.56° C | 76% | 1010.5 hPa | 0 mm | - | - | - |
| 1777124443 | 20.56° C | 77% | 1010.6 hPa | 0 mm | - | - | - |
| 1777123959 | 19.44° C | 83% | 1010.6 hPa | 0 mm | - | - | - |
| 1777123476 | 18.33° C | 86% | 1010.6 hPa | 0 mm | - | - | - |
| 1777122988 | 17.22° C | 87% | 1010.7 hPa | 0 mm | - | - | - |
| 1777122624 | 16.67° C | 89% | 1010.7 hPa | 0 mm | - | - | - |
| 1777121779 | 16.11° C | 89% | 1010.8 hPa | 0 mm | - | - | - |
* Rain latest hour (hover to see other rain measurements)
** Current wind speed in m/s (hover to see current wind gust speed)